sensor_id;sensor_type;location;lat;lon;timestamp;pressure;altitude;pressure_sealevel;temperature;humidity
49063;BME280;34876;51.464;-0.150;2022-10-17T00:03:11;100872.88;;;17.02;80.45
49063;BME280;34876;51.464;-0.150;2022-10-17T00:05:42;100882.70;;;17.04;80.50
49063;BME280;34876;51.464;-0.150;2022-10-17T00:08:13;100888.37;;;16.90;81.96
49063;BME280;34876;51.464;-0.150;2022-10-17T00:10:43;100898.17;;;16.79;82.43
49063;BME280;34876;51.464;-0.150;2022-10-17T00:13:13;100890.82;;;16.73;82.77
49063;BME280;34876;51.464;-0.150;2022-10-17T00:15:43;100889.34;;;16.67;83.38
49063;BME280;34876;51.464;-0.150;2022-10-17T00:18:11;100881.76;;;16.66;83.18
49063;BME280;34876;51.464;-0.150;2022-10-17T00:20:41;100873.00;;;16.64;83.12
49063;BME280;34876;51.464;-0.150;2022-10-17T00:23:10;100874.77;;;16.60;83.24
49063;BME280;34876;51.464;-0.150;2022-10-17T00:25:39;100890.62;;;16.46;84.32
49063;BME280;34876;51.464;-0.150;2022-10-17T00:28:11;100893.76;;;16.49;83.99
49063;BME280;34876;51.464;-0.150;2022-10-17T00:30:41;100897.43;;;16.51;83.75
49063;BME280;34876;51.464;-0.150;2022-10-17T00:33:11;100891.22;;;17.61;64.26
49063;BME280;34876;51.464;-0.150;2022-10-17T00:35:41;100883.74;;;18.50;59.73
49063;BME280;34876;51.464;-0.150;2022-10-17T00:38:11;100887.76;;;18.73;58.56
49063;BME280;34876;51.464;-0.150;2022-10-17T00:40:40;100890.26;;;18.78;58.46
49063;BME280;34876;51.464;-0.150;2022-10-17T00:43:14;100901.46;;;18.94;58.63
49063;BME280;34876;51.464;-0.150;2022-10-17T00:45:45;100915.34;;;18.93;57.28
49063;BME280;34876;51.464;-0.150;2022-10-17T00:48:17;100923.01;;;19.04;56.44
49063;BME280;34876;51.464;-0.150;2022-10-17T00:50:48;100919.33;;;19.07;59.84
49063;BME280;34876;51.464;-0.150;2022-10-17T00:53:17;100918.74;;;19.14;56.03
49063;BME280;34876;51.464;-0.150;2022-10-17T00:55:48;100922.89;;;19.10;61.48
49063;BME280;34876;51.464;-0.150;2022-10-17T00:58:18;100926.43;;;18.97;58.59
49063;BME280;34876;51.464;-0.150;2022-10-17T01:00:54;100929.51;;;19.03;56.20
49063;BME280;34876;51.464;-0.150;2022-10-17T01:03:24;100930.91;;;19.04;56.25
49063;BME280;34876;51.464;-0.150;2022-10-17T01:05:54;100930.83;;;19.13;58.40
49063;BME280;34876;51.464;-0.150;2022-10-17T01:08:24;100939.20;;;19.15;55.48
49063;BME280;34876;51.464;-0.150;2022-10-17T01:11:10;100949.68;;;19.09;55.69
49063;BME280;34876;51.464;-0.150;2022-10-17T01:13:45;100949.02;;;19.20;55.23
49063;BME280;34876;51.464;-0.150;2022-10-17T01:16:21;100948.55;;;19.19;55.26
49063;BME280;34876;51.464;-0.150;2022-10-17T01:19:02;100951.95;;;18.97;56.28
49063;BME280;34876;51.464;-0.150;2022-10-17T01:21:43;100949.55;;;19.15;55.29
49063;BME280;34876;51.464;-0.150;2022-10-17T01:24:35;100947.59;;;19.17;55.27
49063;BME280;34876;51.464;-0.150;2022-10-17T01:27:51;100946.33;;;19.16;55.28
49063;BME280;34876;51.464;-0.150;2022-10-17T01:31:11;100945.99;;;19.21;54.96
49063;BME280;34876;51.464;-0.150;2022-10-17T01:33:47;100946.60;;;19.18;55.05
49063;BME280;34876;51.464;-0.150;2022-10-17T01:36:27;100942.72;;;19.24;54.86
49063;BME280;34876;51.464;-0.150;2022-10-17T01:39:12;100952.97;;;19.21;54.84
49063;BME280;34876;51.464;-0.150;2022-10-17T01:41:46;100960.85;;;19.10;55.61
49063;BME280;34876;51.464;-0.150;2022-10-17T01:44:19;100957.10;;;19.20;54.92
49063;BME280;34876;51.464;-0.150;2022-10-17T01:46:53;100970.08;;;19.27;54.70
49063;BME280;34876;51.464;-0.150;2022-10-17T01:49:28;100972.90;;;19.15;55.13
49063;BME280;34876;51.464;-0.150;2022-10-17T01:52:03;100978.97;;;19.23;54.72
49063;BME280;34876;51.464;-0.150;2022-10-17T01:54:38;100980.94;;;19.23;54.70
49063;BME280;34876;51.464;-0.150;2022-10-17T01:57:14;100972.85;;;19.26;54.54
49063;BME280;34876;51.464;-0.150;2022-10-17T01:59:48;100986.96;;;19.28;54.51
49063;BME280;34876;51.464;-0.150;2022-10-17T02:02:20;100999.58;;;19.31;54.42
49063;BME280;34876;51.464;-0.150;2022-10-17T02:04:51;101004.43;;;19.30;54.44
49063;BME280;34876;51.464;-0.150;2022-10-17T02:07:21;101008.20;;;19.29;54.42
49063;BME280;34876;51.464;-0.150;2022-10-17T02:09:51;101011.20;;;19.32;54.39
49063;BME280;34876;51.464;-0.150;2022-10-17T02:12:32;101010.07;;;19.30;54.51
49063;BME280;34876;51.464;-0.150;2022-10-17T02:15:15;101004.32;;;19.29;54.48
49063;BME280;34876;51.464;-0.150;2022-10-17T02:17:56;101008.58;;;19.30;54.40
49063;BME280;34876;51.464;-0.150;2022-10-17T02:20:32;101014.59;;;19.28;54.48
49063;BME280;34876;51.464;-0.150;2022-10-17T02:23:11;101017.24;;;19.31;54.48
49063;BME280;34876;51.464;-0.150;2022-10-17T02:25:47;101019.58;;;19.30;54.37
49063;BME280;34876;51.464;-0.150;2022-10-17T02:28:20;101021.54;;;19.25;54.58
49063;BME280;34876;51.464;-0.150;2022-10-17T02:30:53;101027.91;;;19.30;54.49
49063;BME280;34876;51.464;-0.150;2022-10-17T02:33:27;101032.35;;;19.18;56.33
49063;BME280;34876;51.464;-0.150;2022-10-17T02:36:03;101040.50;;;19.28;54.49
49063;BME280;34876;51.464;-0.150;2022-10-17T02:38:34;101032.67;;;19.13;55.17
49063;BME280;34876;51.464;-0.150;2022-10-17T02:41:05;101038.53;;;19.16;55.29
49063;BME280;34876;51.464;-0.150;2022-10-17T02:43:36;101043.16;;;19.13;55.39
49063;BME280;34876;51.464;-0.150;2022-10-17T02:46:06;101035.76;;;19.10;55.38
49063;BME280;34876;51.464;-0.150;2022-10-17T02:48:37;101026.11;;;19.09;55.67
49063;BME280;34876;51.464;-0.150;2022-10-17T02:51:14;101014.52;;;19.23;54.73
49063;BME280;34876;51.464;-0.150;2022-10-17T02:53:54;101000.62;;;19.31;54.45
49063;BME280;34876;51.464;-0.150;2022-10-17T02:56:31;101002.60;;;19.31;54.53
49063;BME280;34876;51.464;-0.150;2022-10-17T02:59:09;100997.96;;;19.35;54.27
49063;BME280;34876;51.464;-0.150;2022-10-17T03:01:41;101000.76;;;19.35;54.28
49063;BME280;34876;51.464;-0.150;2022-10-17T03:04:13;101007.19;;;19.35;54.25
49063;BME280;34876;51.464;-0.150;2022-10-17T03:06:42;100998.16;;;19.35;54.26
49063;BME280;34876;51.464;-0.150;2022-10-17T03:09:12;100995.63;;;19.37;54.22
49063;BME280;34876;51.464;-0.150;2022-10-17T03:11:41;101008.56;;;19.36;54.31
49063;BME280;34876;51.464;-0.150;2022-10-17T03:14:10;101007.17;;;19.35;54.39
49063;BME280;34876;51.464;-0.150;2022-10-17T03:16:39;101019.16;;;19.37;54.30
49063;BME280;34876;51.464;-0.150;2022-10-17T03:19:08;101015.80;;;19.38;54.21
49063;BME280;34876;51.464;-0.150;2022-10-17T03:21:37;101016.61;;;19.37;54.22
49063;BME280;34876;51.464;-0.150;2022-10-17T03:24:06;101019.78;;;19.38;54.21
49063;BME280;34876;51.464;-0.150;2022-10-17T03:26:35;101010.24;;;19.37;54.26
49063;BME280;34876;51.464;-0.150;2022-10-17T03:29:04;100996.16;;;19.40;54.26
49063;BME280;34876;51.464;-0.150;2022-10-17T03:31:33;100992.09;;;19.40;54.17
49063;BME280;34876;51.464;-0.150;2022-10-17T03:34:02;100993.34;;;19.38;54.24
49063;BME280;34876;51.464;-0.150;2022-10-17T03:36:31;101003.93;;;19.39;54.23
49063;BME280;34876;51.464;-0.150;2022-10-17T03:39:01;101007.26;;;19.43;54.11
49063;BME280;34876;51.464;-0.150;2022-10-17T03:41:29;101015.85;;;19.40;54.24
49063;BME280;34876;51.464;-0.150;2022-10-17T03:43:58;101023.13;;;19.42;54.16
49063;BME280;34876;51.464;-0.150;2022-10-17T03:46:27;101027.99;;;19.39;54.27
49063;BME280;34876;51.464;-0.150;2022-10-17T03:48:56;101030.65;;;19.37;54.31
49063;BME280;34876;51.464;-0.150;2022-10-17T03:51:25;101034.48;;;19.39;54.23
49063;BME280;34876;51.464;-0.150;2022-10-17T03:53:54;101035.69;;;19.39;54.17
49063;BME280;34876;51.464;-0.150;2022-10-17T03:56:24;101034.60;;;19.31;54.83
49063;BME280;34876;51.464;-0.150;2022-10-17T03:58:53;101030.05;;;19.39;54.29
49063;BME280;34876;51.464;-0.150;2022-10-17T04:01:23;101028.74;;;19.39;54.29
49063;BME280;34876;51.464;-0.150;2022-10-17T04:03:54;101031.60;;;19.40;54.21
49063;BME280;34876;51.464;-0.150;2022-10-17T04:06:23;101031.38;;;19.39;54.28
49063;BME280;34876;51.464;-0.150;2022-10-17T04:08:52;101032.05;;;19.38;54.32
49063;BME280;34876;51.464;-0.150;2022-10-17T04:11:21;101026.76;;;19.42;54.14
49063;BME280;34876;51.464;-0.150;2022-10-17T04:13:52;101019.96;;;19.41;54.17
49063;BME280;34876;51.464;-0.150;2022-10-17T04:16:22;101024.71;;;19.41;54.17
49063;BME280;34876;51.464;-0.150;2022-10-17T04:18:53;101029.51;;;19.40;54.20
49063;BME280;34876;51.464;-0.150;2022-10-17T04:21:22;101036.85;;;19.38;54.26
49063;BME280;34876;51.464;-0.150;2022-10-17T04:23:53;101038.91;;;19.36;54.39
49063;BME280;34876;51.464;-0.150;2022-10-17T04:26:22;101041.81;;;19.37;54.32
49063;BME280;34876;51.464;-0.150;2022-10-17T04:28:52;101041.59;;;19.39;54.23
49063;BME280;34876;51.464;-0.150;2022-10-17T04:31:21;101041.74;;;19.37;54.30
49063;BME280;34876;51.464;-0.150;2022-10-17T04:33:50;101041.76;;;19.38;54.30
49063;BME280;34876;51.464;-0.150;2022-10-17T04:36:19;101038.84;;;19.32;54.48
49063;BME280;34876;51.464;-0.150;2022-10-17T04:38:48;101037.37;;;19.38;54.30
49063;BME280;34876;51.464;-0.150;2022-10-17T04:41:17;101041.29;;;19.34;59.65
49063;BME280;34876;51.464;-0.150;2022-10-17T04:43:47;101052.01;;;19.39;54.26
49063;BME280;34876;51.464;-0.150;2022-10-17T04:46:16;101056.70;;;19.41;54.17
49063;BME280;34876;51.464;-0.150;2022-10-17T04:48:46;101059.45;;;19.40;54.18
49063;BME280;34876;51.464;-0.150;2022-10-17T04:51:16;101069.79;;;19.40;54.18
49063;BME280;34876;51.464;-0.150;2022-10-17T04:53:45;101077.44;;;19.41;54.12
49063;BME280;34876;51.464;-0.150;2022-10-17T04:56:16;101086.00;;;19.41;54.13
49063;BME280;34876;51.464;-0.150;2022-10-17T04:58:46;101075.09;;;19.42;54.10
49063;BME280;34876;51.464;-0.150;2022-10-17T05:01:17;101075.20;;;19.41;54.12
49063;BME280;34876;51.464;-0.150;2022-10-17T05:03:46;101080.02;;;19.37;54.31
49063;BME280;34876;51.464;-0.150;2022-10-17T05:06:16;101077.32;;;19.41;54.15
49063;BME280;34876;51.464;-0.150;2022-10-17T05:08:47;101079.77;;;19.42;54.13
49063;BME280;34876;51.464;-0.150;2022-10-17T05:11:18;101099.84;;;19.41;54.19
49063;BME280;34876;51.464;-0.150;2022-10-17T05:13:49;101115.54;;;19.15;63.01
49063;BME280;34876;51.464;-0.150;2022-10-17T05:16:19;101120.40;;;19.35;54.39
49063;BME280;34876;51.464;-0.150;2022-10-17T05:18:49;101128.06;;;19.37;54.29
49063;BME280;34876;51.464;-0.150;2022-10-17T05:21:19;101133.87;;;19.37;54.32
49063;BME280;34876;51.464;-0.150;2022-10-17T05:23:48;101143.35;;;19.36;54.35
49063;BME280;34876;51.464;-0.150;2022-10-17T05:26:17;101153.99;;;19.35;54.36
49063;BME280;34876;51.464;-0.150;2022-10-17T05:28:47;101162.36;;;19.34;54.48
49063;BME280;34876;51.464;-0.150;2022-10-17T05:31:16;101169.18;;;19.34;54.32
49063;BME280;34876;51.464;-0.150;2022-10-17T05:33:45;101169.05;;;19.36;54.32
49063;BME280;34876;51.464;-0.150;2022-10-17T05:36:14;101170.57;;;19.37;54.29
49063;BME280;34876;51.464;-0.150;2022-10-17T05:38:43;101162.46;;;19.36;54.24
49063;BME280;34876;51.464;-0.150;2022-10-17T05:41:17;101165.67;;;19.37;54.21
49063;BME280;34876;51.464;-0.150;2022-10-17T05:43:46;101172.65;;;19.38;54.24
49063;BME280;34876;51.464;-0.150;2022-10-17T05:46:15;101170.43;;;19.39;54.14
49063;BME280;34876;51.464;-0.150;2022-10-17T05:48:45;101172.10;;;19.41;54.11
49063;BME280;34876;51.464;-0.150;2022-10-17T05:51:14;101182.99;;;19.34;54.33
49063;BME280;34876;51.464;-0.150;2022-10-17T05:53:43;101190.96;;;19.38;54.21
49063;BME280;34876;51.464;-0.150;2022-10-17T05:56:12;101198.77;;;19.32;54.53
49063;BME280;34876;51.464;-0.150;2022-10-17T05:58:42;101184.53;;;19.36;54.36
49063;BME280;34876;51.464;-0.150;2022-10-17T06:01:12;101193.61;;;19.24;54.89
49063;BME280;34876;51.464;-0.150;2022-10-17T06:03:42;101202.04;;;19.30;54.56
49063;BME280;34876;51.464;-0.150;2022-10-17T06:06:12;101207.32;;;19.19;55.06
49063;BME280;34876;51.464;-0.150;2022-10-17T06:08:41;101201.61;;;19.32;54.50
49063;BME280;34876;51.464;-0.150;2022-10-17T06:11:11;101211.86;;;19.32;54.50
49063;BME280;34876;51.464;-0.150;2022-10-17T06:13:41;101221.15;;;19.32;54.44
49063;BME280;34876;51.464;-0.150;2022-10-17T06:16:10;101233.01;;;19.33;54.41
49063;BME280;34876;51.464;-0.150;2022-10-17T06:18:39;101237.13;;;19.32;54.42
49063;BME280;34876;51.464;-0.150;2022-10-17T06:21:10;101236.67;;;19.31;54.43
49063;BME280;34876;51.464;-0.150;2022-10-17T06:23:40;101238.48;;;19.32;54.43
49063;BME280;34876;51.464;-0.150;2022-10-17T06:26:09;101240.84;;;19.33;54.44
49063;BME280;34876;51.464;-0.150;2022-10-17T06:28:37;101243.95;;;19.34;54.43
49063;BME280;34876;51.464;-0.150;2022-10-17T06:31:08;101252.95;;;19.28;54.86
49063;BME280;34876;51.464;-0.150;2022-10-17T06:33:43;101252.25;;;19.32;54.48
49063;BME280;34876;51.464;-0.150;2022-10-17T06:36:13;101250.72;;;19.33;54.42
49063;BME280;34876;51.464;-0.150;2022-10-17T06:38:42;101259.72;;;19.34;54.46
49063;BME280;34876;51.464;-0.150;2022-10-17T06:41:13;101259.27;;;19.31;54.59
49063;BME280;34876;51.464;-0.150;2022-10-17T06:43:43;101264.90;;;19.29;54.60
49063;BME280;34876;51.464;-0.150;2022-10-17T06:46:13;101264.42;;;19.25;54.80
49063;BME280;34876;51.464;-0.150;2022-10-17T06:48:43;101270.54;;;19.32;54.55
49063;BME280;34876;51.464;-0.150;2022-10-17T06:51:13;101279.09;;;19.32;54.53
49063;BME280;34876;51.464;-0.150;2022-10-17T06:53:42;101290.03;;;19.32;54.55
49063;BME280;34876;51.464;-0.150;2022-10-17T06:56:12;101301.60;;;19.34;54.51
49063;BME280;34876;51.464;-0.150;2022-10-17T06:58:40;101306.60;;;19.34;54.53
49063;BME280;34876;51.464;-0.150;2022-10-17T07:01:12;101303.08;;;19.34;54.57
49063;BME280;34876;51.464;-0.150;2022-10-17T07:03:42;101297.05;;;19.29;54.72
49063;BME280;34876;51.464;-0.150;2022-10-17T07:06:11;101305.73;;;19.30;54.63
49063;BME280;34876;51.464;-0.150;2022-10-17T07:08:41;101314.07;;;19.28;54.75
49063;BME280;34876;51.464;-0.150;2022-10-17T07:11:12;101327.71;;;19.29;54.73
49063;BME280;34876;51.464;-0.150;2022-10-17T07:13:42;101325.21;;;19.25;54.82
49063;BME280;34876;51.464;-0.150;2022-10-17T07:16:12;101323.91;;;19.30;54.65
49063;BME280;34876;51.464;-0.150;2022-10-17T07:18:42;101330.81;;;19.31;54.62
49063;BME280;34876;51.464;-0.150;2022-10-17T07:21:11;101334.26;;;19.29;54.68
49063;BME280;34876;51.464;-0.150;2022-10-17T07:23:40;101344.95;;;19.28;54.77
49063;BME280;34876;51.464;-0.150;2022-10-17T07:26:12;101362.53;;;19.32;54.61
49063;BME280;34876;51.464;-0.150;2022-10-17T07:28:43;101375.13;;;19.30;54.68
49063;BME280;34876;51.464;-0.150;2022-10-17T07:31:14;101380.75;;;19.31;54.61
49063;BME280;34876;51.464;-0.150;2022-10-17T07:33:44;101388.40;;;19.29;54.79
49063;BME280;34876;51.464;-0.150;2022-10-17T07:36:14;101383.96;;;19.30;54.68
49063;BME280;34876;51.464;-0.150;2022-10-17T07:38:43;101401.83;;;19.32;54.63
49063;BME280;34876;51.464;-0.150;2022-10-17T07:41:12;101409.07;;;19.31;54.60
49063;BME280;34876;51.464;-0.150;2022-10-17T07:43:41;101414.63;;;19.31;54.63
49063;BME280;34876;51.464;-0.150;2022-10-17T07:46:10;101430.07;;;19.27;54.70
49063;BME280;34876;51.464;-0.150;2022-10-17T07:48:39;101424.01;;;19.26;54.80
49063;BME280;34876;51.464;-0.150;2022-10-17T07:51:09;101427.58;;;19.29;54.81
49063;BME280;34876;51.464;-0.150;2022-10-17T07:53:38;101433.37;;;19.30;54.69
49063;BME280;34876;51.464;-0.150;2022-10-17T07:56:09;101434.69;;;19.34;54.53
49063;BME280;34876;51.464;-0.150;2022-10-17T07:58:39;101434.73;;;19.32;54.60
49063;BME280;34876;51.464;-0.150;2022-10-17T08:01:09;101431.28;;;19.35;54.51
49063;BME280;34876;51.464;-0.150;2022-10-17T08:03:40;101428.82;;;19.22;54.96
49063;BME280;34876;51.464;-0.150;2022-10-17T08:06:09;101441.69;;;19.33;54.57
49063;BME280;34876;51.464;-0.150;2022-10-17T08:08:38;101455.14;;;19.32;54.56
49063;BME280;34876;51.464;-0.150;2022-10-17T08:11:09;101457.37;;;19.34;54.49
49063;BME280;34876;51.464;-0.150;2022-10-17T08:13:39;101467.37;;;19.33;54.52
49063;BME280;34876;51.464;-0.150;2022-10-17T08:16:10;101461.95;;;19.38;54.37
49063;BME280;34876;51.464;-0.150;2022-10-17T08:18:41;101461.07;;;19.42;54.24
49063;BME280;34876;51.464;-0.150;2022-10-17T08:21:11;101469.33;;;19.41;54.26
49063;BME280;34876;51.464;-0.150;2022-10-17T08:23:40;101478.19;;;19.33;54.53
49063;BME280;34876;51.464;-0.150;2022-10-17T08:26:10;101482.50;;;19.39;54.39
49063;BME280;34876;51.464;-0.150;2022-10-17T08:28:39;101488.38;;;19.35;54.54
49063;BME280;34876;51.464;-0.150;2022-10-17T08:31:11;101500.34;;;19.35;54.60
49063;BME280;34876;51.464;-0.150;2022-10-17T08:33:41;101496.92;;;19.40;54.36
49063;BME280;34876;51.464;-0.150;2022-10-17T08:36:12;101500.29;;;19.33;54.94
49063;BME280;34876;51.464;-0.150;2022-10-17T08:38:41;101505.16;;;19.25;59.85
49063;BME280;34876;51.464;-0.150;2022-10-17T08:41:14;101508.52;;;19.36;55.72
49063;BME280;34876;51.464;-0.150;2022-10-17T08:43:57;101516.51;;;19.14;61.62
49063;BME280;34876;51.464;-0.150;2022-10-17T08:46:32;101522.14;;;19.19;55.26
49063;BME280;34876;51.464;-0.150;2022-10-17T08:49:05;101523.84;;;19.19;55.10
49063;BME280;34876;51.464;-0.150;2022-10-17T08:51:43;101527.47;;;19.39;54.36
49063;BME280;34876;51.464;-0.150;2022-10-17T08:54:18;101532.56;;;19.31;59.93
49063;BME280;34876;51.464;-0.150;2022-10-17T08:56:52;101534.60;;;19.43;54.22
49063;BME280;34876;51.464;-0.150;2022-10-17T08:59:25;101544.48;;;19.50;54.00
49063;BME280;34876;51.464;-0.150;2022-10-17T09:02:02;101547.23;;;19.40;54.44
49063;BME280;34876;51.464;-0.150;2022-10-17T09:04:47;101549.70;;;19.33;54.69
49063;BME280;34876;51.464;-0.150;2022-10-17T09:07:26;101549.09;;;19.45;54.16
49063;BME280;34876;51.464;-0.150;2022-10-17T09:10:02;101557.08;;;19.43;54.62
49063;BME280;34876;51.464;-0.150;2022-10-17T09:12:39;101562.88;;;19.41;54.30
49063;BME280;34876;51.464;-0.150;2022-10-17T09:15:37;101561.67;;;19.30;54.98
49063;BME280;34876;51.464;-0.150;2022-10-17T09:18:14;101567.79;;;19.38;54.51
49063;BME280;34876;51.464;-0.150;2022-10-17T09:20:50;101573.05;;;19.46;54.30
49063;BME280;34876;51.464;-0.150;2022-10-17T09:23:22;101585.04;;;19.27;57.84
49063;BME280;34876;51.464;-0.150;2022-10-17T09:25:54;101587.94;;;19.37;54.67
49063;BME280;34876;51.464;-0.150;2022-10-17T09:28:27;101590.25;;;19.45;54.22
49063;BME280;34876;51.464;-0.150;2022-10-17T09:31:00;101590.86;;;19.34;56.73
49063;BME280;34876;51.464;-0.150;2022-10-17T09:33:34;101588.03;;;19.45;54.30
49063;BME280;34876;51.464;-0.150;2022-10-17T09:36:10;101591.05;;;19.45;55.47
49063;BME280;34876;51.464;-0.150;2022-10-17T09:38:42;101594.12;;;19.35;54.69
49063;BME280;34876;51.464;-0.150;2022-10-17T09:41:18;101596.99;;;19.33;54.87
49063;BME280;34876;51.464;-0.150;2022-10-17T09:43:47;101596.74;;;19.40;54.46
49063;BME280;34876;51.464;-0.150;2022-10-17T09:46:20;101609.61;;;19.42;54.35
49063;BME280;34876;51.464;-0.150;2022-10-17T09:48:56;101611.95;;;19.38;55.10
49063;BME280;34876;51.464;-0.150;2022-10-17T09:51:29;101615.19;;;19.49;54.18
49063;BME280;34876;51.464;-0.150;2022-10-17T09:54:02;101623.21;;;19.38;55.60
49063;BME280;34876;51.464;-0.150;2022-10-17T09:56:55;101630.68;;;19.49;54.50
49063;BME280;34876;51.464;-0.150;2022-10-17T09:59:34;101640.26;;;19.48;54.33
49063;BME280;34876;51.464;-0.150;2022-10-17T10:02:09;101646.60;;;19.49;54.26
49063;BME280;34876;51.464;-0.150;2022-10-17T10:04:52;101649.01;;;19.53;54.21
49063;BME280;34876;51.464;-0.150;2022-10-17T10:07:22;101652.08;;;19.37;54.69
49063;BME280;34876;51.464;-0.150;2022-10-17T10:09:52;101666.22;;;19.43;54.62
49063;BME280;34876;51.464;-0.150;2022-10-17T10:12:24;101669.40;;;19.56;53.98
49063;BME280;34876;51.464;-0.150;2022-10-17T10:14:53;101675.29;;;19.57;53.99
49063;BME280;34876;51.464;-0.150;2022-10-17T10:17:39;101680.22;;;19.57;53.93
49063;BME280;34876;51.464;-0.150;2022-10-17T10:20:28;101688.36;;;19.55;54.10
49063;BME280;34876;51.464;-0.150;2022-10-17T10:23:18;101687.40;;;19.45;54.48
49063;BME280;34876;51.464;-0.150;2022-10-17T10:25:51;101689.45;;;19.52;54.13
49063;BME280;34876;51.464;-0.150;2022-10-17T10:28:25;101691.58;;;19.37;54.99
49063;BME280;34876;51.464;-0.150;2022-10-17T10:30:55;101696.09;;;19.44;54.74
49063;BME280;34876;51.464;-0.150;2022-10-17T10:33:27;101701.05;;;19.32;54.99
49063;BME280;34876;51.464;-0.150;2022-10-17T10:35:59;101704.94;;;19.44;54.55
49063;BME280;34876;51.464;-0.150;2022-10-17T10:38:29;101708.66;;;19.44;54.91
49063;BME280;34876;51.464;-0.150;2022-10-17T10:41:02;101716.10;;;19.48;54.46
49063;BME280;34876;51.464;-0.150;2022-10-17T10:43:34;101721.04;;;19.48;54.88
49063;BME280;34876;51.464;-0.150;2022-10-17T10:46:16;101712.57;;;19.45;54.51
49063;BME280;34876;51.464;-0.150;2022-10-17T10:48:51;101716.18;;;19.56;54.10
49063;BME280;34876;51.464;-0.150;2022-10-17T10:51:24;101717.52;;;19.54;54.88
49063;BME280;34876;51.464;-0.150;2022-10-17T10:54:00;101722.52;;;19.46;54.64
49063;BME280;34876;51.464;-0.150;2022-10-17T10:56:36;101726.61;;;19.41;55.16
49063;BME280;34876;51.464;-0.150;2022-10-17T10:59:11;101734.88;;;19.43;54.88
49063;BME280;34876;51.464;-0.150;2022-10-17T11:01:47;101744.64;;;19.41;55.83
49063;BME280;34876;51.464;-0.150;2022-10-17T11:04:25;101748.29;;;19.48;54.64
49063;BME280;34876;51.464;-0.150;2022-10-17T11:06:59;101753.41;;;19.50;54.51
49063;BME280;34876;51.464;-0.150;2022-10-17T11:09:41;101751.05;;;19.34;55.67
49063;BME280;34876;51.464;-0.150;2022-10-17T11:12:18;101759.05;;;19.42;54.90
49063;BME280;34876;51.464;-0.150;2022-10-17T11:14:53;101768.08;;;19.37;55.26
49063;BME280;34876;51.464;-0.150;2022-10-17T11:17:31;101768.75;;;19.38;55.42
49063;BME280;34876;51.464;-0.150;2022-10-17T11:20:11;101771.71;;;19.44;54.94
49063;BME280;34876;51.464;-0.150;2022-10-17T11:22:44;101774.54;;;19.43;55.07
49063;BME280;34876;51.464;-0.150;2022-10-17T11:25:27;101776.19;;;19.50;54.73
49063;BME280;34876;51.464;-0.150;2022-10-17T11:27:58;101780.00;;;19.49;54.93
49063;BME280;34876;51.464;-0.150;2022-10-17T11:30:42;101786.34;;;19.57;54.44
49063;BME280;34876;51.464;-0.150;2022-10-17T11:33:17;101787.39;;;19.61;54.01
49063;BME280;34876;51.464;-0.150;2022-10-17T11:35:51;101794.18;;;19.37;54.88
49063;BME280;34876;51.464;-0.150;2022-10-17T11:38:25;101801.80;;;19.41;54.63
49063;BME280;34876;51.464;-0.150;2022-10-17T11:40:58;101802.02;;;19.55;54.21
49063;BME280;34876;51.464;-0.150;2022-10-17T11:43:31;101808.84;;;19.62;53.96
49063;BME280;34876;51.464;-0.150;2022-10-17T11:46:05;101812.87;;;19.49;54.70
49063;BME280;34876;51.464;-0.150;2022-10-17T11:48:43;101815.87;;;19.50;54.70
49063;BME280;34876;51.464;-0.150;2022-10-17T11:51:14;101815.13;;;19.33;55.04
49063;BME280;34876;51.464;-0.150;2022-10-17T11:53:47;101824.93;;;19.58;54.10
49063;BME280;34876;51.464;-0.150;2022-10-17T11:56:20;101824.35;;;19.66;53.78
49063;BME280;34876;51.464;-0.150;2022-10-17T11:58:57;101823.12;;;19.52;54.18
49063;BME280;34876;51.464;-0.150;2022-10-17T12:01:36;101824.82;;;19.45;53.98
49063;BME280;34876;51.464;-0.150;2022-10-17T12:04:17;101823.57;;;19.55;54.18
49063;BME280;34876;51.464;-0.150;2022-10-17T12:06:58;101824.93;;;19.40;54.17
49063;BME280;34876;51.464;-0.150;2022-10-17T12:09:37;101827.69;;;19.50;54.55
49063;BME280;34876;51.464;-0.150;2022-10-17T12:12:07;101823.56;;;19.55;54.23
49063;BME280;34876;51.464;-0.150;2022-10-17T12:14:40;101828.83;;;19.46;52.72
49063;BME280;34876;51.464;-0.150;2022-10-17T12:17:43;101827.34;;;19.43;54.80
49063;BME280;34876;51.464;-0.150;2022-10-17T12:20:24;101826.26;;;19.43;54.89
49063;BME280;34876;51.464;-0.150;2022-10-17T12:22:57;101829.23;;;19.43;55.00
49063;BME280;34876;51.464;-0.150;2022-10-17T12:25:30;101829.42;;;19.44;54.80
49063;BME280;34876;51.464;-0.150;2022-10-17T12:28:10;101835.93;;;19.56;53.10
49063;BME280;34876;51.464;-0.150;2022-10-17T12:30:50;101837.06;;;19.57;54.35
49063;BME280;34876;51.464;-0.150;2022-10-17T12:33:23;101843.55;;;19.59;54.15
49063;BME280;34876;51.464;-0.150;2022-10-17T12:36:35;101840.28;;;19.43;52.18
49063;BME280;34876;51.464;-0.150;2022-10-17T12:39:41;101842.14;;;19.67;53.83
49063;BME280;34876;51.464;-0.150;2022-10-17T12:43:43;101841.15;;;19.60;54.04
49063;BME280;34876;51.464;-0.150;2022-10-17T12:46:44;101843.56;;;19.62;53.85
49063;BME280;34876;51.464;-0.150;2022-10-17T12:49:23;101844.17;;;19.62;54.00
49063;BME280;34876;51.464;-0.150;2022-10-17T12:52:21;101842.50;;;19.66;53.61
49063;BME280;34876;51.464;-0.150;2022-10-17T12:54:57;101846.66;;;19.61;51.93
49063;BME280;34876;51.464;-0.150;2022-10-17T12:57:32;101848.41;;;19.67;53.69
49063;BME280;34876;51.464;-0.150;2022-10-17T13:00:11;101848.36;;;19.67;53.56
49063;BME280;34876;51.464;-0.150;2022-10-17T13:02:42;101848.61;;;19.62;53.73
49063;BME280;34876;51.464;-0.150;2022-10-17T13:05:16;101842.40;;;19.67;53.65
49063;BME280;34876;51.464;-0.150;2022-10-17T13:07:48;101846.67;;;19.67;53.60
49063;BME280;34876;51.464;-0.150;2022-10-17T13:10:20;101847.44;;;19.63;53.52
49063;BME280;34876;51.464;-0.150;2022-10-17T13:12:53;101856.08;;;19.71;52.17
49063;BME280;34876;51.464;-0.150;2022-10-17T13:15:27;101863.91;;;19.57;53.46